ADDS METAR Data INFO
IDs: Format: Raw Decoded Include TAF

Data at: 1347 UTC 17 Dec 2017

PAKK 171317Z AUTO 00000KT 10SM FEW022 OVC048 M05/M06 A2942 RMK AO2 FZRANO
PAKK 171256Z AUTO 33003KT 10SM OVC022 M05/M06 A2941 RMK AO2 SLP974 T10501061 FZRANO
PAKK 171156Z AUTO 30004KT 10SM FEW009 BKN024 OVC050 M04/M06 A2939 RMK AO2 SLP967 T10441056 11039 21050 53017 FZRANO
PAKK 171056Z AUTO 33003KT 10SM SCT010 OVC026 M04/M06 A2937 RMK AO2 SLP959 T10441056 FZRANO
PAKK 170956Z AUTO 32003KT 10SM OVC010 M04/M05 A2935 RMK AO2 SLP951 T10441050 FZRANO
PAKK 170954Z AUTO 33003KT 10SM OVC010 M04/M05 A2934 RMK AO2 FZRANO
PAKK 170931Z AUTO 00000KT 10SM OVC008 M04/M05 A2933 RMK AO2 FZRANO
PAKK 170856Z AUTO 00000KT 10SM OVC010 M04/M05 A2932 RMK AO2 SLP943 T10441050 410171056 53024 FZRANO
PAKK 170756Z AUTO 36003KT 10SM OVC012 M04/M05 A2929 RMK AO2 SLP934 T10441050 FZRANO
PAKK 170656Z AUTO 02003KT 10SM OVC014 M04/M05 A2927 RMK AO2 SLP925 T10441050 FZRANO
PAKK 170611Z AUTO 00000KT 10SM OVC014 M05/M06 A2925 RMK AO2 FZRANO
PAKK 170556Z AUTO 33003KT 10SM OVC016 M05/M06 A2925 RMK AO2 SNE30 SLP918 P0000 60000 T10501056 11028 21056 51014 FZRANO
PAKK 170535Z AUTO 00000KT 9SM SCT004 OVC018 M05/M06 A2924 RMK AO2 SNE30 P0000 FZRANO
PAKK 170510Z AUTO 34005KT 9SM -SN BKN004 OVC010 M04/M05 A2924 RMK AO2 P0000 FZRANO
PAKK 170456Z AUTO 34006KT 8SM -SN SCT004 OVC010 M04/M05 A2923 RMK AO2 SNB05 SLP912 P0000 T10441050 FZRANO
PAKK 170454Z AUTO 33006KT 8SM -SN FEW004 OVC010 M04/M05 A2923 RMK AO2 SNB05 P0000 FZRANO
PAKK 170417Z AUTO 34004KT 9SM -SN OVC010 M04/M05 A2922 RMK AO2 SNB05 P0000 FZRANO
PAKK 170356Z AUTO 33003KT 10SM BKN008 OVC012 M04/M04 A2921 RMK AO2 SLP904 T10441044 FZRANO
PAKK 170342Z AUTO 01003KT 10SM BKN008 OVC012 M04/M04 A2920 RMK AO2 FZRANO
PAKK 170324Z AUTO 00000KT 10SM BKN014 M05/M05 A2920 RMK AO2 FZRANO
PAKK 170256Z AUTO 00000KT 10SM FEW014 M06/M06 A2919 RMK AO2 SLP898 T10561056 53015 FZRANO
PAKK 170156Z AUTO 36003KT 10SM SCT015 M05/M06 A2917 RMK AO2 SLP890 T10501056 FZRANO
PAKK 170056Z AUTO 36006KT 10SM FEW017 M04/M04 A2915 RMK AO2 SLP885 T10391044 FZRANO
PAKK 162356Z AUTO 00000KT 10SM BKN019 M03/M04 A2914 RMK AO2 SLP883 T10281044 11017 21039 53016 FZRANO
PAKK 162348Z AUTO 00000KT 10SM BKN019 M03/M04 A2914 RMK AO2 FZRANO
PAKK 162256Z AUTO 36005KT 10SM CLR M02/M04 A2913 RMK AO2 SLP877 T10221039 FZRANO
PAKK 162156Z AUTO 35004KT 10SM CLR M03/M04 A2911 RMK AO2 SLP871 T10281039 FZRANO
PAKK 162056Z AUTO 36005KT 10SM CLR M03/M04 A2910 RMK AO2 SLP868 T10331044 53013 FZRANO
PAKK 161956Z AUTO 30003KT 10SM CLR M04/M05 A2909 RMK AO2 SLP863 T10391050 FZRANO
PAKK 161856Z AUTO 36005KT 10SM SCT120 M02/M04 A2907 RMK AO2 SLP857 T10221039 FZRANO
PAKK 161818Z AUTO 01006KT 10SM SCT017 SCT032 BKN120 M02/M03 A2906 RMK AO2 FZRANO
PAKK 161756Z AUTO 01005KT 10SM OVC019 M02/M03 A2906 RMK AO2 SLP855 60000 T10171028 11017 21022 53007 FZRANO
PAKK 161656Z AUTO 02005KT 10SM BKN017 OVC039 M02/M03 A2905 RMK AO2 SNE24 SLP851 P0000 T10221028 FZRANO
PAKK 161654Z AUTO 02005KT 10SM BKN017 OVC039 M02/M03 A2905 RMK AO2 SNE24 P0000 FZRANO
PAKK 161556Z AUTO 04006KT 5SM -SN BR FEW023 BKN037 OVC110 M02/M03 A2904 RMK AO2 SLP848 P0000 T10221028 FZRANO
PAKK 161529Z AUTO 04006KT 4SM -SN BR SCT025 OVC032 M02/M03 A2904 RMK AO2 P0000 FZRANO
PAKK 161519Z AUTO 04006KT 3SM -SN BR BKN023 OVC030 M02/M03 A2904 RMK AO2 P0000 FZRANO
PAKK 161508Z AUTO 04005KT 2 1/2SM -SN BR BKN019 OVC024 M02/M03 A2904 RMK AO2 P0000 FZRANO
PAKK 161456Z AUTO 04007KT 1 3/4SM -SN BR OVC019 M02/M03 A2904 RMK AO2 SLP848 P0000 60000 T10221028 51003 FZRANO
PAKK 161439Z AUTO 04006KT 1 3/4SM -SN BR OVC019 M02/M03 A2904 RMK AO2 P0000 FZRANO
PAKK 161424Z AUTO 03005KT 2SM -SN BR BKN021 BKN028 OVC036 M02/M03 A2904 RMK AO2 P0000 FZRANO
PAKK 161356Z AUTO 04006KT 8SM -SN OVC026 M02/M03 A2904 RMK AO2 SLP847 P0000 T10171033 FZRANO
PAKK 161330Z AUTO 02006KT 9SM -SN BKN029 OVC095 M02/M04 A2904 RMK AO2 P0000 FZRANO
PAKK 161256Z AUTO 03007KT 9SM -SN BKN031 OVC038 M02/M04 A2904 RMK AO2 SNB1159 SLP846 P0000 T10171039 FZRANO
PAKK 161156Z AUTO 03008KT 10SM FEW031 BKN040 OVC055 M02/M04 A2903 RMK AO2 SNE49 SLP845 P0000 60000 T10171039 11017 21039 55001 FZRANO
PAKK 161056Z AUTO 02007KT 9SM -SN SCT039 OVC048 M02/M04 A2903 RMK AO2 SLP843 P0000 T10171044 FZRANO
PAKK 160956Z AUTO 04010KT 9SM -SN OVC049 M02/M04 A2903 RMK AO2 SNB08E19B35 SLP845 P0000 T10171044 FZRANO
PAKK 160856Z AUTO 03009G16KT 10SM OVC050 M02/M04 A2903 RMK AO2 SLP845 60000 T10221044 410221072 57014 FZRANO
PAKK 160756Z AUTO 02007KT 10SM OVC060 M03/M04 A2905 RMK AO2 SNE26 SLP850 P0000 T10281044 FZRANO
PAKK 160656Z AUTO 01010G16KT 9SM -SN FEW029 BKN043 OVC055 M03/M05 A2906 RMK AO2 SLP855 P0000 T10281050 FZRANO
PAKK 160608Z AUTO 02012G16KT 8SM -SN OVC033 M03/M05 A2907 RMK AO2 P0000 FZRANO
PAKK 160556Z AUTO 02011KT 6SM -SN BR BKN028 OVC033 M03/M06 A2907 RMK AO2 SLP859 P0000 60000 T10331056 11033 21072 56013 FZRANO
PAKK 160554Z AUTO 02010G16KT 6SM -SN BR OVC030 M03/M06 A2908 RMK AO2 P0000 FZRANO
PAKK 160533Z AUTO 02011G18KT 6SM -SN BR BKN028 BKN038 OVC050 M04/M06 A2908 RMK AO2 P0000 FZRANO
PAKK 160456Z AUTO 02011G17KT 9SM -SN BKN060 OVC075 M04/M06 A2910 RMK AO2 SNB41 SLP867 P0000 T10391061 FZRANO
PAKK 160356Z AUTO 01010G17KT 10SM FEW070 OVC090 M05/M07 A2911 RMK AO2 SLP872 T10501067 FZRANO
PAKK 160256Z AUTO 01012G16KT 10SM BKN110 M06/M07 A2912 RMK AO2 SLP875 T10561072 56033 FZRANO
PAKK 160156Z AUTO 02013G19KT 10SM FEW110 M07/M08 A2914 RMK AO2 SLP883 T10671083 FZRANO